Terminal Aerodrome Forecast
Issued by NWS Portland, OR

Home | Current Version | Previous Version | Text Only | Print | Product List | Glossary On
Versions: 1 2 3 4 5 6 7 8 9 10 11 12 13 14 15 16
000
FTUS46 KPQR 162342
TAFEUG
TAF
KEUG 162342Z 1700/1724 20006KT P6SM SCT025 BKN045 OVC070
      TEMPO 1706/1710 -RA
     FM171000 19005KT P6SM -RA SCT025 OVC045
     FM171500 19007KT P6SM -RA SCT015 BKN025 OVC035
     FM172100 19011KT P6SM -RA BKN020 OVC035=

USA.gov is the U.S. government's official web portal to all federal, state and local government web resources and services.